Airfield :







YOU CAN JOIN US ON...

 
LOGIN :

Register | Disclaimer

   EN    FR    IT 

 









Legend :    VFR   Marginal VFR   IFR   Intensive IFR   Very Intensive IFR
Visi :
Ceiling :
>= 8 km
>= 3000ft
5 to 8 km
1000 to 3000 ft
1500m to 5 km
500 to 1000 ft
800 to 1500m
200 to 500 ft
< 800m
< 200 ft
Symbols :   Thunderstorms  Fog  Heavy snow  Heavy precipitations  Wind > 20 kt







- Airport Elevation : 792 ft
- IATA code : YSC


CYSC - Sherbrooke

CURRENT METAR :
  • 211613Z AUTO VRB02KT 9SM BKN025 BKN250 21/16 A3021 RMK SLP233 DENSITY ALT 1300FT

EXPIRED METARs :
  • 211537Z AUTO 29006KT 240V010 9SM SCT021 BKN250 20/16 A3021 RMK SLP235 DENSITY ALT 1200FT
  • 211517Z AUTO VRB03KT 9SM BKN021 BKN240 20/15 A3022 RMK SLP237 DENSITY ALT 1100FT
  • 211500Z AUTO VRB02KT 9SM FEW017 SCT240 20/15 A3022 RMK SLP238 DENSITY ALT 1100FT
  • 211442Z AUTO 00000KT 9SM SCT012 SCT240 18/15 A3023 RMK SLP240 DENSITY ALT 1000FT

TAF AMD TAF CYSC
Valid from the 21 at 15:00 until the 21 at 23:00 UTC


211550Z 2115/2123 29006KT P6SM SCT020
TEMPO 2115/2117 BKN020
FM211700 29006KT P6SM SCT030
TEMPO 2117/2123 BKN030 RMK FCST BASED ON AUTO OBS. NXT FCST BY 211800Z
No reported NOTAMs for that airfield.



MET'MAP, your aeronautical weather chart ! - Copyright ORBIFLY December 2007 - Disclaimer

ORBIFLY MET'MAP TEAM :

Programming & Development : Alexandra Zaïnal
Concept & Development : Baudouin d'Aumeries
Co-Development & Prog : Marc-Olivier Méhu
Technical & hardware support : Manuel Goepfert

Contact : metmap@orbifly.com




SOURCES & CREDITS :

   NOAA